createdAt,value
2022-10-23T00:05:33.797Z,100698.88
2022-10-23T00:15:38.020Z,100687.47
2022-10-23T00:25:42.471Z,100677.09
2022-10-23T00:35:45.423Z,100679.47
2022-10-23T00:45:49.726Z,100678.28
2022-10-23T00:55:55.872Z,100669.63
2022-10-23T01:06:07.048Z,100665.69
2022-10-23T01:16:18.017Z,100675.97
2022-10-23T01:26:35.982Z,100664.19
2022-10-23T01:36:44.238Z,100664.25
2022-10-23T01:46:49.918Z,100651.41
2022-10-23T01:56:57.387Z,100647.78
2022-10-23T02:07:03.556Z,100631.72
2022-10-23T02:17:16.597Z,100607.25
2022-10-23T02:27:22.987Z,100604.09
2022-10-23T02:37:30.827Z,100595.94
2022-10-23T02:47:47.803Z,100581.09
2022-10-23T02:57:57.920Z,100556.66
2022-10-23T03:08:04.406Z,100535.72
2022-10-23T03:18:09.021Z,100520.59
2022-10-23T03:28:12.321Z,100522.56
2022-10-23T03:38:17.145Z,100517.50
2022-10-23T03:48:20.639Z,100541.28
2022-10-23T03:58:24.979Z,100514.84
2022-10-23T04:08:28.048Z,100506.13
2022-10-23T04:18:32.847Z,100513.78
2022-10-23T04:28:36.177Z,100507.16
2022-10-23T04:38:40.714Z,100503.72
2022-10-23T04:48:43.822Z,100471.72
2022-10-23T04:59:07.092Z,100471.91
2022-10-23T05:09:11.432Z,100467.06
2022-10-23T05:19:45.028Z,100445.84
2022-10-23T05:29:48.050Z,100449.41
2022-10-23T05:39:56.053Z,100429.31
2022-10-23T05:49:59.291Z,100425.22
2022-10-23T06:00:22.294Z,100407.53
2022-10-23T06:10:38.068Z,100402.84
2022-10-23T06:20:45.337Z,100400.00
2022-10-23T06:30:56.949Z,100400.75
2022-10-23T06:41:01.399Z,100398.84
2022-10-23T06:51:14.081Z,100379.41
2022-10-23T07:01:21.345Z,100368.28
2022-10-23T07:11:24.731Z,100370.09
2022-10-23T07:21:31.277Z,100371.06
2022-10-23T07:31:58.142Z,100373.25
2022-10-23T07:42:22.145Z,100366.44
2022-10-23T07:52:32.041Z,100376.22
2022-10-23T08:02:54.427Z,100354.88
2022-10-23T08:12:57.519Z,100352.34
2022-10-23T08:23:21.515Z,100335.88
2022-10-23T08:33:26.081Z,100338.22
2022-10-23T08:43:37.177Z,100307.16
2022-10-23T08:54:00.931Z,100309.44
2022-10-23T09:04:06.228Z,100296.13
2022-10-23T09:14:39.775Z,100281.44
2022-10-23T09:24:44.918Z,100274.38
2022-10-23T09:34:56.005Z,100271.53
2022-10-23T09:45:00.335Z,100260.84
2022-10-23T09:55:19.968Z,100269.75
2022-10-23T10:05:26.959Z,100264.84
2022-10-23T10:15:38.987Z,100251.63
2022-10-23T10:25:53.054Z,100236.75
2022-10-23T10:36:04.794Z,100199.66
2022-10-23T10:46:18.295Z,100175.59
2022-10-23T10:56:24.433Z,100190.72
2022-10-23T11:06:31.883Z,100207.56
2022-10-23T11:16:38.402Z,100199.59
2022-10-23T11:26:55.408Z,100169.06
2022-10-23T11:37:01.529Z,100154.41
2022-10-23T11:47:08.210Z,100134.44
2022-10-23T11:57:14.491Z,100124.28
2022-10-23T12:07:27.166Z,100113.03
2022-10-23T12:17:37.070Z,100087.41
2022-10-23T12:27:54.574Z,100069.34
2022-10-23T12:38:13.190Z,100069.81
2022-10-23T12:48:21.953Z,100032.19
2022-10-23T12:58:30.782Z,100028.13
2022-10-23T13:08:44.559Z,100012.91
2022-10-23T13:19:07.962Z,99997.97
2022-10-23T13:29:21.578Z,99978.38
2022-10-23T13:39:30.097Z,99965.97
2022-10-23T14:00:09.157Z,99951.00
2022-10-23T14:10:27.874Z,99938.56
2022-10-23T14:20:30.860Z,99910.72
2022-10-23T14:30:37.180Z,99915.50
2022-10-23T14:40:40.318Z,99894.94
2022-10-23T14:50:49.221Z,99888.16
2022-10-23T15:00:58.892Z,99883.97
2022-10-23T15:11:07.692Z,99877.53
2022-10-23T15:21:16.058Z,99872.06
2022-10-23T15:31:41.755Z,99858.16
2022-10-23T15:41:44.611Z,99852.94
2022-10-23T15:51:48.820Z,99861.56
2022-10-23T16:01:52.903Z,99871.72
2022-10-23T16:11:57.558Z,99875.06
2022-10-23T16:22:00.724Z,99867.38
2022-10-23T16:32:05.434Z,99909.50
2022-10-23T16:42:08.652Z,99951.19
2022-10-23T16:52:53.352Z,100046.34
2022-10-23T17:03:01.162Z,100027.44
2022-10-23T17:13:13.681Z,100058.72
2022-10-23T17:34:54.804Z,99911.34
2022-10-23T17:44:57.929Z,99930.09
2022-10-23T17:55:02.131Z,99942.53
2022-10-23T18:05:06.112Z,99935.84
2022-10-23T18:15:11.263Z,99920.13
2022-10-23T18:25:14.145Z,99921.16
2022-10-23T18:35:18.443Z,99920.00
2022-10-23T18:45:21.761Z,99917.84
2022-10-23T18:55:26.171Z,99915.06
2022-10-23T19:05:29.163Z,99932.31
2022-10-23T19:15:35.075Z,99907.06
2022-10-23T19:25:38.717Z,99907.47
2022-10-23T19:35:43.553Z,99897.88
2022-10-23T19:45:46.895Z,99921.06
2022-10-23T19:55:51.113Z,99939.09
2022-10-23T20:05:54.315Z,99953.88
2022-10-23T20:15:58.757Z,99953.38
2022-10-23T20:26:06.536Z,99952.94
2022-10-23T20:36:23.265Z,99954.63
2022-10-23T20:46:26.875Z,99969.50
2022-10-23T20:56:33.066Z,99988.81
2022-10-23T21:06:51.905Z,100016.22
2022-10-23T21:17:00.451Z,100017.16
2022-10-23T21:27:03.716Z,100013.91
2022-10-23T21:37:13.015Z,100028.75
2022-10-23T21:47:16.632Z,100013.16
2022-10-23T21:57:21.801Z,100022.47
2022-10-23T22:07:24.779Z,100003.78
2022-10-23T22:17:29.382Z,100001.06
2022-10-23T22:27:32.323Z,100001.47
2022-10-23T22:37:36.863Z,100006.00
2022-10-23T22:47:40.001Z,100011.84
2022-10-23T22:57:44.551Z,100015.09
2022-10-23T23:07:48.363Z,100012.13
2022-10-23T23:17:52.588Z,100020.41
2022-10-23T23:27:55.524Z,100006.28
2022-10-23T23:37:59.768Z,100006.66
2022-10-23T23:48:02.784Z,99992.63
2022-10-23T23:58:07.715Z,99979.81
